createdAt,value
2023-04-17T00:00:44.653Z,14.15
2023-04-17T00:05:45.699Z,15.75
2023-04-17T00:10:47.112Z,15.85
2023-04-17T00:15:52.221Z,16.10
2023-04-17T00:20:51.775Z,15.77
2023-04-17T00:25:49.909Z,14.82
2023-04-17T00:30:48.100Z,16.33
2023-04-17T00:35:46.239Z,15.93
2023-04-17T00:40:46.366Z,16.65
2023-04-17T00:45:44.616Z,15.15
2023-04-17T00:50:43.167Z,15.35
2023-04-17T00:55:42.251Z,14.48
2023-04-17T01:00:42.154Z,15.50
2023-04-17T01:05:40.695Z,13.65
2023-04-17T01:10:41.066Z,15.52
2023-04-17T01:15:39.978Z,14.13
2023-04-17T01:20:39.678Z,15.63
2023-04-17T01:25:39.240Z,15.98
2023-04-17T01:30:37.714Z,15.35
2023-04-17T01:35:40.361Z,15.35
2023-04-17T01:40:39.950Z,14.52
2023-04-17T01:45:38.270Z,16.08
2023-04-17T01:50:36.503Z,16.90
2023-04-17T01:55:34.654Z,15.85
2023-04-17T02:00:34.215Z,15.88
2023-04-17T02:05:32.394Z,16.33
2023-04-17T02:10:31.660Z,15.23
2023-04-17T02:15:29.859Z,17.23
2023-04-17T02:20:30.135Z,15.90
2023-04-17T02:25:30.056Z,16.20
2023-04-17T02:30:28.808Z,15.82
2023-04-17T02:35:31.264Z,15.73
2023-04-17T02:40:29.814Z,15.55
2023-04-17T02:45:32.719Z,16.90
2023-04-17T02:50:33.853Z,15.65
2023-04-17T02:55:39.710Z,15.63
2023-04-17T03:00:38.141Z,16.25
2023-04-17T03:05:37.970Z,16.95
2023-04-17T03:10:36.176Z,16.95
2023-04-17T03:15:35.193Z,16.00
2023-04-17T03:20:33.412Z,17.48
2023-04-17T03:25:33.139Z,15.15
2023-04-17T03:30:32.176Z,15.00
2023-04-17T03:35:34.504Z,15.68
2023-04-17T03:40:38.431Z,14.90
2023-04-17T03:45:37.195Z,15.48
2023-04-17T03:50:35.678Z,16.00
2023-04-17T03:55:33.996Z,14.80
2023-04-17T04:00:33.633Z,16.45
2023-04-17T04:05:38.127Z,16.42
2023-04-17T04:10:38.941Z,16.23
2023-04-17T04:15:39.306Z,15.85
2023-04-17T04:20:38.586Z,16.60
2023-04-17T04:25:46.201Z,16.52
2023-04-17T04:31:02.799Z,14.98
2023-04-17T04:36:07.131Z,14.45
2023-04-17T04:41:10.390Z,14.48
2023-04-17T04:46:11.715Z,13.75
2023-04-17T04:56:13.625Z,13.38
2023-04-17T05:01:13.531Z,13.98
2023-04-17T05:06:15.980Z,14.20
2023-04-17T05:11:23.810Z,14.45
2023-04-17T05:16:24.138Z,15.55
2023-04-17T05:21:22.679Z,14.68
2023-04-17T05:26:23.117Z,15.10
2023-04-17T05:31:22.253Z,14.35
2023-04-17T05:36:22.392Z,16.05
2023-04-17T05:41:21.677Z,17.00
2023-04-17T05:46:20.532Z,17.98
2023-04-17T05:51:18.789Z,19.55
2023-04-17T05:56:18.410Z,15.70
2023-04-17T06:01:17.784Z,16.80
2023-04-17T06:06:16.059Z,15.90
2023-04-17T06:11:15.778Z,16.85
2023-04-17T06:16:16.479Z,14.80
2023-04-17T06:21:17.203Z,13.95
2023-04-17T06:26:15.678Z,15.43
2023-04-17T06:31:13.847Z,15.90
2023-04-17T06:36:13.658Z,13.73
2023-04-17T06:41:18.345Z,14.20
2023-04-17T06:46:16.731Z,14.18
2023-04-17T06:51:17.961Z,14.18
2023-04-17T06:56:16.263Z,15.43
2023-04-17T07:01:15.077Z,16.45
2023-04-17T07:06:13.450Z,13.13
2023-04-17T07:11:12.982Z,13.10
2023-04-17T07:16:11.200Z,11.73
2023-04-17T07:21:09.336Z,11.80
2023-04-17T07:26:07.488Z,13.27
2023-04-17T07:31:08.801Z,13.98
2023-04-17T07:36:08.555Z,14.02
2023-04-17T07:41:06.745Z,13.15
2023-04-17T07:46:04.973Z,11.48
2023-04-17T07:51:04.682Z,11.88
2023-04-17T07:56:02.882Z,12.05
2023-04-17T08:01:02.007Z,13.38
2023-04-17T08:06:00.344Z,14.18
2023-04-17T08:10:59.862Z,11.82
2023-04-17T08:15:58.060Z,9.55
2023-04-17T08:20:56.259Z,8.73
2023-04-17T08:25:54.434Z,9.07
2023-04-17T08:30:53.994Z,10.32
2023-04-17T08:35:52.612Z,11.07
2023-04-17T08:40:52.273Z,15.00
2023-04-17T08:45:54.063Z,12.82
2023-04-17T08:50:54.759Z,10.38
2023-04-17T08:55:53.047Z,10.85
2023-04-17T09:00:51.235Z,11.20
2023-04-17T09:05:49.431Z,10.20
2023-04-17T09:10:49.611Z,11.65
2023-04-17T09:15:48.654Z,10.68
2023-04-17T09:20:49.875Z,11.85
2023-04-17T09:26:05.966Z,9.20
2023-04-17T09:31:05.123Z,8.13
2023-04-17T09:36:22.506Z,7.38
2023-04-17T09:41:25.498Z,6.50
2023-04-17T09:46:33.204Z,7.85
2023-04-17T09:51:32.041Z,7.88
2023-04-17T09:56:33.744Z,8.68
2023-04-17T10:01:32.568Z,6.57
2023-04-17T10:06:31.637Z,7.93
2023-04-17T10:11:32.093Z,8.27
2023-04-17T10:16:35.250Z,7.13
2023-04-17T10:21:35.094Z,6.40
2023-04-17T10:26:37.941Z,6.30
2023-04-17T10:31:54.844Z,6.50
2023-04-17T10:36:53.243Z,5.55
2023-04-17T10:42:04.545Z,6.20
2023-04-17T10:47:06.717Z,6.22
2023-04-17T10:52:04.884Z,7.40
2023-04-17T10:57:11.066Z,6.63
2023-04-17T11:02:09.487Z,7.22
2023-04-17T11:07:07.992Z,7.07
2023-04-17T11:12:07.780Z,6.95
2023-04-17T11:17:06.028Z,6.30
2023-04-17T11:22:04.383Z,5.97
2023-04-17T11:27:03.869Z,7.95
2023-04-17T11:32:03.743Z,10.77
2023-04-17T11:37:03.143Z,6.43
2023-04-17T11:42:02.457Z,8.45
2023-04-17T11:47:00.813Z,8.20
2023-04-17T11:52:02.116Z,7.32
2023-04-17T11:57:01.519Z,36.65
2023-04-17T12:02:00.815Z,13.70
2023-04-17T12:06:59.859Z,8.43
2023-04-17T12:11:59.802Z,8.05
2023-04-17T12:16:58.009Z,11.13
2023-04-17T12:21:56.696Z,10.65
2023-04-17T12:26:54.990Z,8.90
2023-04-17T12:31:54.585Z,14.55
2023-04-17T12:36:53.001Z,9.45
2023-04-17T12:41:51.166Z,20.33
2023-04-17T12:46:49.325Z,13.30
2023-04-17T12:51:48.821Z,11.85
2023-04-17T12:56:48.417Z,11.18
2023-04-17T13:01:47.724Z,10.60
2023-04-17T13:06:45.870Z,11.57
2023-04-17T13:11:45.380Z,12.30
2023-04-17T13:16:43.760Z,12.48
2023-04-17T13:21:41.936Z,11.38
2023-04-17T13:26:40.166Z,21.02
2023-04-17T13:31:39.690Z,11.48
2023-04-17T13:36:37.868Z,16.67
2023-04-17T13:41:36.013Z,11.20
2023-04-17T13:46:35.198Z,16.85
2023-04-17T13:51:34.724Z,17.50
2023-04-17T13:56:32.874Z,23.10
2023-04-17T14:01:31.055Z,19.08
2023-04-17T14:06:29.270Z,9.02
2023-04-17T14:11:28.765Z,11.88
2023-04-17T14:16:27.626Z,15.52
2023-04-17T14:21:25.854Z,9.68
2023-04-17T14:26:23.986Z,9.40
2023-04-17T14:31:23.773Z,9.32
2023-04-17T14:36:21.949Z,9.25
2023-04-17T14:41:20.170Z,10.13
2023-04-17T14:46:18.317Z,10.05
2023-04-17T14:51:17.833Z,9.90
2023-04-17T14:56:16.010Z,13.25
2023-04-17T15:01:14.311Z,12.45
2023-04-17T15:06:12.443Z,11.13
2023-04-17T15:11:11.990Z,14.23
2023-04-17T15:16:10.367Z,15.05
2023-04-17T15:21:08.929Z,11.93
2023-04-17T15:26:07.290Z,10.98
2023-04-17T15:31:06.993Z,10.02
2023-04-17T15:36:05.260Z,10.73
2023-04-17T15:41:04.001Z,11.60
2023-04-17T15:46:03.485Z,8.60
2023-04-17T15:51:04.880Z,10.43
2023-04-17T15:56:03.093Z,9.85
2023-04-17T16:01:01.265Z,12.55
2023-04-17T16:05:59.486Z,9.35
2023-04-17T16:10:59.808Z,11.20
2023-04-17T16:15:58.134Z,9.23
2023-04-17T16:20:56.281Z,8.57
2023-04-17T16:25:55.305Z,8.88
2023-04-17T16:30:54.846Z,8.63
2023-04-17T16:35:52.979Z,10.63
2023-04-17T16:40:53.659Z,8.20
2023-04-17T16:45:51.825Z,14.93
2023-04-17T16:50:51.381Z,8.85
2023-04-17T16:55:49.613Z,7.90
2023-04-17T17:00:47.955Z,10.23
2023-04-17T17:05:46.086Z,7.75
2023-04-17T17:10:45.653Z,7.97
2023-04-17T17:15:43.795Z,8.02
2023-04-17T17:20:41.963Z,8.32
2023-04-17T17:25:40.118Z,7.10
2023-04-17T17:30:39.633Z,7.32
2023-04-17T17:35:38.306Z,7.65
2023-04-17T17:40:36.850Z,8.25
2023-04-17T17:45:35.017Z,7.05
2023-04-17T17:50:34.665Z,6.38
2023-04-17T17:55:37.204Z,8.25
2023-04-17T18:00:35.860Z,7.35
2023-04-17T18:05:35.646Z,6.68
2023-04-17T18:10:34.848Z,6.78
2023-04-17T18:15:33.203Z,7.68
2023-04-17T18:20:31.353Z,9.98
2023-04-17T18:25:30.838Z,7.57
2023-04-17T18:30:28.996Z,7.63
2023-04-17T18:35:27.236Z,5.82
2023-04-17T18:40:25.398Z,6.85
2023-04-17T18:45:24.896Z,7.57
2023-04-17T18:50:23.047Z,6.43
2023-04-17T18:55:21.198Z,6.20
2023-04-17T19:00:19.363Z,7.03
2023-04-17T19:05:20.453Z,5.60
2023-04-17T19:10:18.660Z,7.03
2023-04-17T19:15:17.681Z,6.43
2023-04-17T19:20:16.903Z,6.68
2023-04-17T19:25:16.451Z,7.03
2023-04-17T19:30:14.701Z,6.97
2023-04-17T19:35:12.832Z,6.40
2023-04-17T19:40:21.526Z,6.75
2023-04-17T19:45:23.676Z,6.88
2023-04-17T19:50:21.860Z,7.38
2023-04-17T19:55:20.718Z,5.85
2023-04-17T20:00:18.966Z,6.78
2023-04-17T20:05:18.936Z,6.75
2023-04-17T20:10:17.114Z,7.43
2023-04-17T20:15:19.760Z,6.30
2023-04-17T20:20:19.275Z,7.15
2023-04-17T20:25:18.840Z,6.25
2023-04-17T20:30:19.687Z,6.55
2023-04-17T20:35:20.975Z,5.63
2023-04-17T20:40:19.285Z,5.63
2023-04-17T20:45:17.522Z,6.15
2023-04-17T20:50:15.829Z,5.45
2023-04-17T20:55:15.366Z,4.88
2023-04-17T21:00:13.902Z,6.35
2023-04-17T21:05:12.120Z,5.50
2023-04-17T21:10:10.335Z,5.32
2023-04-17T21:15:10.679Z,5.30
2023-04-17T21:20:09.628Z,5.03
2023-04-17T21:25:08.472Z,5.03
2023-04-17T21:30:08.129Z,4.82
2023-04-17T21:35:09.498Z,6.05
2023-04-17T21:40:08.241Z,5.35
2023-04-17T21:45:06.996Z,5.15
2023-04-17T21:50:05.390Z,5.60
2023-04-17T21:55:05.733Z,5.25
2023-04-17T22:00:05.765Z,5.30
2023-04-17T22:05:05.091Z,5.45
2023-04-17T22:10:03.442Z,5.70
2023-04-17T22:15:02.995Z,6.32
2023-04-17T22:20:01.135Z,5.75
2023-04-17T22:24:59.277Z,6.93
2023-04-17T22:29:57.633Z,4.78
2023-04-17T22:34:57.135Z,4.60
2023-04-17T22:39:55.636Z,5.35
2023-04-17T22:44:53.821Z,4.82
2023-04-17T22:49:52.607Z,5.68
2023-04-17T22:54:52.125Z,6.53
2023-04-17T22:59:50.256Z,6.88
2023-04-17T23:04:48.417Z,6.50
2023-04-17T23:09:47.111Z,6.88
2023-04-17T23:14:48.428Z,6.45
2023-04-17T23:19:46.698Z,8.02
2023-04-17T23:24:44.822Z,7.65
2023-04-17T23:29:42.966Z,7.45
2023-04-17T23:34:42.675Z,7.18
2023-04-17T23:39:40.786Z,7.13
2023-04-17T23:44:38.895Z,7.28
2023-04-17T23:49:37.036Z,7.40
2023-04-17T23:54:36.538Z,6.78
2023-04-17T23:59:34.644Z,7.40
